createdAt,value
2018-04-13T00:00:01.545Z,0.00
2018-04-13T00:01:01.542Z,0.00
2018-04-13T00:02:01.571Z,0.00
2018-04-13T00:03:01.594Z,0.00
2018-04-13T00:04:01.621Z,0.00
2018-04-13T00:05:01.650Z,0.00
2018-04-13T00:06:01.674Z,0.00
2018-04-13T00:07:01.701Z,0.00
2018-04-13T00:08:01.727Z,0.00
2018-04-13T00:09:01.754Z,0.00
2018-04-13T00:10:01.816Z,0.00
2018-04-13T00:11:01.842Z,0.00
2018-04-13T00:12:01.833Z,0.00
2018-04-13T00:13:01.860Z,0.00
2018-04-13T00:14:01.886Z,0.00
2018-04-13T00:15:01.913Z,0.00
2018-04-13T00:16:01.940Z,0.00
2018-04-13T00:17:01.967Z,0.00
2018-04-13T00:18:02.027Z,0.00
2018-04-13T00:19:02.025Z,0.00
2018-04-13T00:20:02.046Z,0.00
2018-04-13T00:21:02.073Z,0.00
2018-04-13T00:22:02.099Z,0.00
2018-04-13T00:23:02.125Z,0.00
2018-04-13T00:24:02.153Z,0.00
2018-04-13T00:25:02.179Z,0.00
2018-04-13T00:26:02.205Z,0.00
2018-04-13T00:27:02.231Z,0.00
2018-04-13T00:28:02.262Z,0.00
2018-04-13T00:29:02.285Z,0.00
2018-04-13T00:30:02.320Z,0.00
2018-04-13T00:31:02.338Z,0.00
2018-04-13T00:32:02.390Z,0.00
2018-04-13T00:33:02.391Z,0.00
2018-04-13T00:34:02.417Z,0.00
2018-04-13T00:35:02.443Z,0.00
2018-04-13T00:36:02.473Z,0.00
2018-04-13T00:37:02.513Z,0.00
2018-04-13T00:38:02.523Z,0.00
2018-04-13T00:39:02.550Z,0.00
2018-04-13T00:40:02.577Z,0.00
2018-04-13T00:41:02.603Z,0.00
2018-04-13T00:42:02.630Z,0.00
2018-04-13T00:43:02.658Z,0.00
2018-04-13T00:44:02.682Z,0.00
2018-04-13T00:45:02.709Z,0.00
2018-04-13T00:46:02.734Z,0.00
2018-04-13T00:47:02.761Z,0.00
2018-04-13T00:48:02.792Z,0.00
2018-04-13T00:49:02.816Z,0.00
2018-04-13T00:50:02.840Z,0.00
2018-04-13T00:51:02.867Z,0.00
2018-04-13T00:52:02.894Z,0.00
2018-04-13T00:53:02.921Z,0.00
2018-04-13T00:54:02.946Z,0.00
2018-04-13T00:55:02.976Z,0.00
2018-04-13T00:56:03.000Z,0.00
2018-04-13T00:57:03.029Z,0.00
2018-04-13T00:58:03.055Z,0.00
2018-04-13T00:59:03.079Z,0.00
2018-04-13T01:00:03.109Z,0.00
2018-04-13T01:01:03.132Z,0.00
2018-04-13T01:02:03.158Z,0.00
2018-04-13T01:03:03.185Z,0.00
2018-04-13T01:04:03.212Z,0.00
2018-04-13T01:05:03.272Z,0.00
2018-04-13T01:06:03.264Z,0.00
2018-04-13T01:07:03.290Z,0.00
2018-04-13T01:08:03.317Z,0.00
2018-04-13T01:09:03.344Z,0.00
2018-04-13T01:10:03.371Z,0.00
2018-04-13T01:11:03.428Z,0.00
2018-04-13T01:12:03.423Z,0.00
2018-04-13T01:13:03.450Z,0.00
2018-04-13T01:14:03.476Z,0.00
2018-04-13T01:15:03.501Z,0.00
2018-04-13T01:16:03.529Z,0.00
2018-04-13T01:17:03.555Z,0.00
2018-04-13T01:18:03.584Z,0.00
2018-04-13T01:19:03.608Z,0.00
2018-04-13T01:20:03.634Z,0.00
2018-04-13T01:21:03.660Z,0.00
2018-04-13T01:22:03.692Z,0.00
2018-04-13T01:23:03.713Z,0.00
2018-04-13T01:24:03.739Z,0.00
2018-04-13T01:25:03.766Z,0.00
2018-04-13T01:26:03.792Z,0.00
2018-04-13T01:27:03.819Z,0.00
2018-04-13T01:28:03.847Z,0.00
2018-04-13T01:29:03.872Z,0.00
2018-04-13T01:30:03.897Z,0.00
2018-04-13T01:31:03.925Z,0.00
2018-04-13T01:32:03.979Z,0.00
2018-04-13T01:33:03.978Z,0.00
2018-04-13T01:34:04.005Z,0.00
2018-04-13T01:35:04.031Z,0.00
2018-04-13T01:36:04.057Z,0.00
2018-04-13T01:37:04.084Z,0.00
2018-04-13T01:38:04.125Z,0.00
2018-04-13T01:39:04.136Z,0.00
2018-04-13T01:40:04.163Z,0.00
2018-04-13T01:41:04.191Z,0.00
2018-04-13T01:42:04.218Z,0.00
2018-04-13T01:43:04.244Z,0.00
2018-04-13T01:44:04.271Z,0.00
2018-04-13T01:45:04.296Z,0.00
2018-04-13T01:46:04.321Z,0.00
2018-04-13T01:47:04.347Z,0.00
2018-04-13T01:48:04.374Z,0.00
2018-04-13T01:49:04.403Z,0.00
2018-04-13T01:50:04.430Z,0.00
2018-04-13T01:51:04.453Z,0.00
2018-04-13T01:52:04.506Z,0.00
2018-04-13T01:53:04.506Z,0.00
2018-04-13T01:54:04.532Z,0.00
2018-04-13T01:55:04.559Z,0.00
2018-04-13T01:56:04.586Z,0.00
2018-04-13T01:57:04.612Z,0.00
2018-04-13T01:58:04.638Z,0.00
2018-04-13T01:59:04.665Z,0.00
2018-04-13T02:00:04.692Z,0.00
2018-04-13T02:01:04.718Z,0.00
2018-04-13T02:02:04.742Z,0.00
2018-04-13T02:03:04.773Z,0.00
2018-04-13T02:04:04.797Z,0.00
2018-04-13T02:05:04.823Z,0.00
2018-04-13T02:06:04.850Z,0.00
2018-04-13T02:07:04.902Z,0.00
2018-04-13T02:08:04.902Z,0.00
2018-04-13T02:09:04.932Z,0.00
2018-04-13T02:10:04.955Z,0.00
2018-04-13T02:11:05.009Z,0.00
2018-04-13T02:12:05.008Z,0.00
2018-04-13T02:13:05.035Z,0.00
2018-04-13T02:14:05.060Z,0.00
2018-04-13T02:15:05.087Z,0.00
2018-04-13T02:16:05.116Z,0.00
2018-04-13T02:17:05.143Z,0.00
2018-04-13T02:18:05.191Z,0.00
2018-04-13T02:19:05.225Z,0.00
2018-04-13T02:20:05.219Z,0.00
2018-04-13T02:21:05.246Z,0.00
2018-04-13T02:22:05.276Z,0.00
2018-04-13T02:23:05.298Z,0.00
2018-04-13T02:24:05.324Z,0.00
2018-04-13T02:25:05.351Z,0.00
2018-04-13T02:26:05.424Z,0.00
2018-04-13T02:27:05.403Z,0.00
2018-04-13T02:28:05.430Z,0.00
2018-04-13T02:29:05.456Z,4.00
2018-04-13T02:30:05.482Z,4.00
2018-04-13T02:31:05.508Z,4.00
2018-04-13T02:32:05.535Z,4.00
2018-04-13T02:33:05.563Z,0.00
2018-04-13T02:34:05.588Z,4.00
2018-04-13T02:35:05.616Z,4.00
2018-04-13T02:36:05.641Z,4.00
2018-04-13T02:37:05.675Z,4.00
2018-04-13T02:38:05.694Z,4.00
2018-04-13T02:39:05.720Z,4.00
2018-04-13T02:40:05.747Z,8.00
2018-04-13T02:41:05.773Z,4.00
2018-04-13T02:42:05.799Z,8.00
2018-04-13T02:43:05.826Z,4.00
2018-04-13T02:44:05.854Z,8.00
2018-04-13T02:45:05.879Z,12.00
2018-04-13T02:46:05.909Z,8.00
2018-04-13T02:47:05.956Z,12.00
2018-04-13T02:48:05.995Z,12.00
2018-04-13T02:49:05.985Z,16.00
2018-04-13T02:50:06.011Z,16.00
2018-04-13T02:51:06.037Z,12.00
2018-04-13T02:52:06.065Z,16.00
2018-04-13T02:53:06.093Z,20.00
2018-04-13T02:54:06.115Z,20.00
2018-04-13T02:55:06.146Z,24.00
2018-04-13T02:56:06.167Z,24.00
2018-04-13T02:57:06.195Z,24.00
2018-04-13T02:58:06.220Z,24.00
2018-04-13T02:59:06.247Z,28.00
2018-04-13T03:00:06.274Z,28.00
2018-04-13T03:01:06.300Z,32.00
2018-04-13T03:02:06.325Z,36.00
2018-04-13T03:03:06.407Z,40.00
2018-04-13T03:04:06.379Z,40.00
2018-04-13T03:05:06.406Z,40.00
2018-04-13T03:06:06.435Z,44.00
2018-04-13T03:07:06.457Z,48.00
2018-04-13T03:08:06.484Z,56.00
2018-04-13T03:09:06.511Z,64.00
2018-04-13T03:10:06.537Z,76.00
2018-04-13T03:11:06.564Z,80.00
2018-04-13T03:12:06.591Z,84.00
2018-04-13T03:13:06.617Z,92.00
2018-04-13T03:14:06.643Z,88.00
2018-04-13T03:15:06.689Z,84.00
2018-04-13T03:16:06.703Z,84.00
2018-04-13T03:17:06.723Z,84.00
2018-04-13T03:18:06.752Z,92.00
2018-04-13T03:19:06.776Z,116.00
2018-04-13T03:20:06.805Z,164.00
2018-04-13T03:21:06.829Z,188.00
2018-04-13T03:22:06.854Z,224.00
2018-04-13T03:23:06.881Z,240.00
2018-04-13T03:24:06.908Z,252.00
2018-04-13T03:25:06.938Z,276.00
2018-04-13T03:26:06.963Z,236.00
2018-04-13T03:27:06.987Z,240.00
2018-04-13T03:28:07.013Z,268.00
2018-04-13T03:29:07.041Z,228.00
2018-04-13T03:30:07.070Z,208.00
2018-04-13T03:31:07.093Z,252.00
2018-04-13T03:32:07.119Z,308.00
2018-04-13T03:33:07.146Z,324.00
2018-04-13T03:34:07.175Z,320.00
2018-04-13T03:35:07.199Z,312.00
2018-04-13T03:36:07.225Z,272.00
2018-04-13T03:37:07.270Z,240.00
2018-04-13T03:38:07.280Z,212.00
2018-04-13T03:39:07.304Z,208.00
2018-04-13T03:40:07.329Z,220.00
2018-04-13T03:41:07.356Z,232.00
2018-04-13T03:42:07.382Z,228.00
2018-04-13T03:43:07.409Z,244.00
2018-04-13T03:44:07.436Z,260.00
2018-04-13T03:45:07.463Z,268.00
2018-04-13T03:46:07.488Z,292.00
2018-04-13T03:47:07.563Z,372.00
2018-04-13T03:48:07.542Z,552.00
2018-04-13T03:49:07.577Z,796.00
2018-04-13T03:50:07.595Z,1080.00
2018-04-13T03:51:07.623Z,1184.00
2018-04-13T03:52:07.648Z,1128.00
2018-04-13T03:53:07.675Z,1148.00
2018-04-13T03:54:07.703Z,1220.00
2018-04-13T03:55:07.728Z,1256.00
2018-04-13T03:56:07.755Z,1304.00
2018-04-13T03:57:07.781Z,1336.00
2018-04-13T03:58:07.807Z,1400.00
2018-04-13T03:59:07.833Z,1440.00
2018-04-13T04:00:07.862Z,1240.00
2018-04-13T04:01:07.887Z,1052.00
2018-04-13T04:02:07.964Z,1356.00
2018-04-13T04:03:07.942Z,1456.00
2018-04-13T04:04:07.966Z,1280.00
2018-04-13T04:05:08.038Z,1240.00
2018-04-13T04:06:08.019Z,1248.00
2018-04-13T04:07:08.045Z,1084.00
2018-04-13T04:08:08.072Z,920.00
2018-04-13T04:09:08.099Z,1000.00
2018-04-13T04:10:08.125Z,1168.00
2018-04-13T04:11:08.152Z,1204.00
2018-04-13T04:12:08.178Z,764.00
2018-04-13T04:13:08.205Z,440.00
2018-04-13T04:14:08.232Z,612.00
2018-04-13T04:15:08.258Z,744.00
2018-04-13T04:16:08.284Z,764.00
2018-04-13T04:17:08.314Z,780.00
2018-04-13T04:18:08.338Z,968.00
2018-04-13T04:19:08.364Z,928.00
2018-04-13T04:20:08.391Z,704.00
2018-04-13T04:21:08.448Z,524.00
2018-04-13T04:22:08.445Z,504.00
2018-04-13T04:23:08.471Z,704.00
2018-04-13T04:24:08.519Z,660.00
2018-04-13T04:25:08.525Z,580.00
2018-04-13T04:26:08.555Z,704.00
2018-04-13T04:27:08.577Z,556.00
2018-04-13T04:28:08.604Z,420.00
2018-04-13T04:29:08.668Z,524.00
2018-04-13T04:30:08.657Z,980.00
2018-04-13T04:31:08.685Z,1488.00
2018-04-13T04:32:08.712Z,1556.00
2018-04-13T04:33:08.740Z,1156.00
2018-04-13T04:34:08.763Z,840.00
2018-04-13T04:35:08.794Z,820.00
2018-04-13T04:36:08.819Z,700.00
2018-04-13T04:37:08.876Z,544.00
2018-04-13T04:38:08.870Z,588.00
2018-04-13T04:39:08.897Z,868.00
2018-04-13T04:40:08.924Z,1100.00
2018-04-13T04:41:08.952Z,1168.00
2018-04-13T04:42:08.978Z,1324.00
2018-04-13T04:43:09.007Z,1252.00
2018-04-13T04:44:09.032Z,1088.00
2018-04-13T04:45:09.058Z,1404.00
2018-04-13T04:46:09.084Z,1440.00
2018-04-13T04:47:09.112Z,1312.00
2018-04-13T04:48:09.139Z,1364.00
2018-04-13T04:49:09.165Z,1140.00
2018-04-13T04:50:09.191Z,1272.00
2018-04-13T04:51:09.218Z,1020.00
2018-04-13T04:52:09.247Z,940.00
2018-04-13T04:53:09.274Z,964.00
2018-04-13T04:54:09.302Z,1004.00
2018-04-13T04:55:09.327Z,968.00
2018-04-13T04:56:09.353Z,908.00
2018-04-13T04:57:09.381Z,1052.00
2018-04-13T04:58:09.406Z,968.00
2018-04-13T04:59:09.434Z,856.00
2018-04-13T05:00:09.467Z,620.00
2018-04-13T05:01:09.487Z,572.00
2018-04-13T05:02:09.515Z,728.00
2018-04-13T05:03:09.541Z,812.00
2018-04-13T05:04:09.569Z,864.00
2018-04-13T05:05:09.600Z,928.00
2018-04-13T05:06:09.624Z,1076.00
2018-04-13T05:07:09.649Z,1196.00
2018-04-13T05:08:09.676Z,1168.00
2018-04-13T05:09:09.742Z,1144.00
2018-04-13T05:10:09.728Z,1088.00
2018-04-13T05:11:09.756Z,1028.00
2018-04-13T05:12:09.843Z,1012.00
2018-04-13T05:13:09.811Z,988.00
2018-04-13T05:14:09.835Z,968.00
2018-04-13T05:15:09.862Z,900.00
2018-04-13T05:16:09.891Z,772.00
2018-04-13T05:17:09.919Z,696.00
2018-04-13T05:18:09.944Z,640.00
2018-04-13T05:19:09.972Z,536.00
2018-04-13T05:20:09.998Z,500.00
2018-04-13T05:21:17.135Z,520.00
2018-04-13T05:23:02.960Z,508.00
2018-04-13T05:24:02.972Z,496.00
2018-04-13T05:26:10.343Z,492.00
2018-04-13T05:27:10.320Z,492.00
2018-04-13T05:29:05.100Z,492.00
2018-04-13T05:30:04.931Z,480.00
2018-04-13T05:31:57.860Z,500.00
2018-04-13T05:32:57.846Z,500.00
2018-04-13T05:34:51.630Z,500.00
2018-04-13T05:35:51.607Z,496.00
2018-04-13T05:38:11.729Z,488.00
2018-04-13T05:39:11.727Z,476.00
2018-04-13T05:41:04.642Z,480.00
2018-04-13T05:42:04.679Z,484.00
2018-04-13T05:43:56.584Z,492.00
2018-04-13T05:44:56.568Z,496.00
2018-04-13T05:46:49.483Z,496.00
2018-04-13T05:47:49.483Z,492.00
2018-04-13T05:49:42.383Z,484.00
2018-04-13T05:50:42.403Z,480.00
2018-04-13T05:52:35.321Z,488.00
2018-04-13T05:53:35.316Z,500.00
2018-04-13T05:55:55.477Z,492.00
2018-04-13T05:56:55.460Z,504.00
2018-04-13T05:59:02.841Z,488.00
2018-04-13T06:00:02.854Z,500.00
2018-04-13T06:02:22.944Z,492.00
2018-04-13T06:03:22.943Z,492.00
2018-04-13T06:05:40.406Z,504.00
2018-04-13T06:06:40.405Z,508.00
2018-04-13T06:08:32.429Z,524.00
2018-04-13T06:09:32.432Z,556.00
2018-04-13T06:11:25.376Z,660.00
2018-04-13T06:12:25.395Z,692.00
2018-04-13T06:14:19.158Z,656.00
2018-04-13T06:15:19.167Z,636.00
2018-04-13T06:17:38.490Z,636.00
2018-04-13T06:18:38.492Z,624.00
2018-04-13T06:20:30.514Z,612.00
2018-04-13T06:21:30.513Z,624.00
2018-04-13T06:23:24.277Z,732.00
2018-04-13T06:24:24.309Z,868.00
2018-04-13T06:26:28.985Z,1000.00
2018-04-13T06:27:29.000Z,1024.00
2018-04-13T06:29:21.042Z,1072.00
2018-04-13T06:30:21.009Z,1092.00
2018-04-13T06:32:12.932Z,1156.00
2018-04-13T06:33:12.931Z,1176.00
2018-04-13T06:35:04.961Z,1216.00
2018-04-13T06:36:04.959Z,1244.00
2018-04-13T06:37:56.885Z,1256.00
2018-04-13T06:38:56.882Z,1248.00
2018-04-13T06:40:48.950Z,940.00
2018-04-13T06:41:48.911Z,692.00
2018-04-13T06:43:41.960Z,568.00
2018-04-13T06:44:41.908Z,508.00
2018-04-13T06:46:34.811Z,476.00
2018-04-13T06:47:34.829Z,476.00
2018-04-13T06:49:29.444Z,472.00
2018-04-13T06:50:29.441Z,476.00
2018-04-13T06:52:49.614Z,508.00
2018-04-13T06:53:49.564Z,492.00
2018-04-13T06:56:07.023Z,472.00
2018-04-13T06:57:07.033Z,476.00
2018-04-13T06:58:59.028Z,472.00
2018-04-13T06:59:59.056Z,476.00
2018-04-13T07:00:59.073Z,476.00
2018-04-13T07:01:59.104Z,476.00
2018-04-13T07:02:59.136Z,476.00
2018-04-13T07:03:59.156Z,476.00
2018-04-13T07:04:59.182Z,472.00
2018-04-13T07:05:59.210Z,472.00
2018-04-13T07:06:59.237Z,468.00
2018-04-13T07:07:59.264Z,468.00
2018-04-13T07:08:59.291Z,460.00
2018-04-13T07:09:59.318Z,460.00
2018-04-13T07:10:59.345Z,460.00
2018-04-13T07:11:59.372Z,460.00
2018-04-13T07:12:59.398Z,456.00
2018-04-13T07:13:59.430Z,456.00
2018-04-13T07:14:59.472Z,452.00
2018-04-13T07:15:59.481Z,448.00
2018-04-13T07:16:59.509Z,448.00
2018-04-13T07:17:59.535Z,448.00
2018-04-13T07:18:59.567Z,448.00
2018-04-13T07:19:59.594Z,448.00
2018-04-13T07:20:59.620Z,448.00
2018-04-13T07:21:59.653Z,444.00
2018-04-13T07:22:59.672Z,444.00
2018-04-13T07:23:59.699Z,448.00
2018-04-13T07:24:59.760Z,448.00
2018-04-13T07:25:59.752Z,444.00
2018-04-13T07:26:59.805Z,448.00
2018-04-13T07:27:59.807Z,448.00
2018-04-13T07:28:59.834Z,452.00
2018-04-13T07:29:59.862Z,452.00
2018-04-13T07:30:59.888Z,452.00
2018-04-13T07:31:59.916Z,452.00
2018-04-13T07:32:59.939Z,500.00
2018-04-13T07:33:59.966Z,500.00
2018-04-13T07:35:00.520Z,500.00
2018-04-13T07:36:00.028Z,500.00
2018-04-13T07:37:00.469Z,500.00
2018-04-13T07:38:00.075Z,504.00
2018-04-13T07:39:00.101Z,504.00
2018-04-13T07:40:00.131Z,516.00
2018-04-13T07:41:00.157Z,516.00
2018-04-13T07:42:00.185Z,516.00
2018-04-13T07:43:00.217Z,512.00
2018-04-13T07:44:00.257Z,516.00
2018-04-13T07:45:00.336Z,516.00
2018-04-13T07:46:00.347Z,516.00
2018-04-13T07:47:00.318Z,504.00
2018-04-13T07:48:00.345Z,508.00
2018-04-13T07:49:00.371Z,504.00
2018-04-13T07:50:00.404Z,508.00
2018-04-13T07:51:00.428Z,500.00
2018-04-13T07:52:00.462Z,504.00
2018-04-13T07:53:00.514Z,508.00
2018-04-13T07:54:00.508Z,508.00
2018-04-13T07:55:00.537Z,504.00
2018-04-13T07:56:00.564Z,504.00
2018-04-13T07:57:00.596Z,504.00
2018-04-13T07:58:00.620Z,508.00
2018-04-13T07:59:01.320Z,508.00
2018-04-13T08:00:00.674Z,508.00
2018-04-13T08:01:00.734Z,508.00
2018-04-13T08:02:00.724Z,508.00
2018-04-13T08:03:00.750Z,512.00
2018-04-13T08:04:00.793Z,512.00
2018-04-13T08:05:00.815Z,512.00
2018-04-13T08:06:00.830Z,512.00
2018-04-13T08:07:00.857Z,508.00
2018-04-13T08:08:00.888Z,512.00
2018-04-13T08:09:00.911Z,508.00
2018-04-13T08:10:00.938Z,512.00
2018-04-13T08:11:00.976Z,512.00
2018-04-13T08:12:00.993Z,508.00
2018-04-13T08:13:01.020Z,508.00
2018-04-13T08:14:01.047Z,504.00
2018-04-13T08:15:01.088Z,488.00
2018-04-13T08:16:01.101Z,484.00
2018-04-13T08:17:01.127Z,468.00
2018-04-13T08:18:01.174Z,464.00
2018-04-13T08:19:01.182Z,464.00
2018-04-13T08:20:01.210Z,464.00
2018-04-13T08:21:01.235Z,468.00
2018-04-13T08:22:01.264Z,472.00
2018-04-13T08:23:01.290Z,472.00
2018-04-13T08:24:01.336Z,476.00
2018-04-13T08:25:01.348Z,472.00
2018-04-13T08:26:01.374Z,472.00
2018-04-13T08:27:01.398Z,472.00
2018-04-13T08:28:01.424Z,476.00
2018-04-13T08:29:01.452Z,476.00
2018-04-13T08:30:01.481Z,472.00
2018-04-13T08:31:01.778Z,476.00
2018-04-13T08:32:01.533Z,476.00
2018-04-13T08:33:01.559Z,472.00
2018-04-13T08:34:01.589Z,472.00
2018-04-13T08:35:01.614Z,476.00
2018-04-13T08:36:01.644Z,476.00
2018-04-13T08:37:01.677Z,480.00
2018-04-13T08:38:01.744Z,480.00
2018-04-13T08:39:01.723Z,476.00
2018-04-13T08:40:01.751Z,472.00
2018-04-13T08:41:01.775Z,472.00
2018-04-13T08:42:01.802Z,476.00
2018-04-13T08:43:01.878Z,476.00
2018-04-13T08:44:01.858Z,476.00
2018-04-13T08:45:01.884Z,476.00
2018-04-13T08:46:01.911Z,472.00
2018-04-13T08:47:01.960Z,468.00
2018-04-13T08:48:01.984Z,476.00
2018-04-13T08:49:02.131Z,472.00
2018-04-13T08:50:02.025Z,476.00
2018-04-13T08:51:02.125Z,468.00
2018-04-13T08:52:02.072Z,476.00
2018-04-13T08:53:02.185Z,456.00
2018-04-13T08:54:02.145Z,448.00
2018-04-13T08:55:02.161Z,452.00
2018-04-13T08:56:02.183Z,460.00
2018-04-13T08:57:02.209Z,460.00
2018-04-13T08:58:02.243Z,464.00
2018-04-13T08:59:02.270Z,464.00
2018-04-13T09:00:02.296Z,460.00
2018-04-13T09:01:02.347Z,464.00
2018-04-13T09:02:02.354Z,460.00
2018-04-13T09:03:02.378Z,452.00
2018-04-13T09:04:02.402Z,452.00
2018-04-13T09:05:02.428Z,456.00
2018-04-13T09:06:02.462Z,456.00
2018-04-13T09:07:02.486Z,464.00
2018-04-13T09:08:02.515Z,460.00
2018-04-13T09:09:02.567Z,456.00
2018-04-13T09:10:02.559Z,456.00
2018-04-13T09:11:02.590Z,460.00
2018-04-13T09:12:02.617Z,460.00
2018-04-13T09:13:02.699Z,460.00
2018-04-13T09:14:02.680Z,456.00
2018-04-13T09:15:02.698Z,456.00
2018-04-13T09:16:02.722Z,452.00
2018-04-13T09:17:02.774Z,460.00
2018-04-13T09:18:02.776Z,456.00
2018-04-13T09:19:02.803Z,456.00
2018-04-13T09:20:02.852Z,452.00
2018-04-13T09:21:02.856Z,448.00
2018-04-13T09:22:02.883Z,444.00
2018-04-13T09:23:02.911Z,444.00
2018-04-13T09:24:02.942Z,444.00
2018-04-13T09:25:02.969Z,444.00
2018-04-13T09:26:02.994Z,444.00
2018-04-13T09:27:03.019Z,452.00
2018-04-13T09:28:03.048Z,460.00
2018-04-13T09:29:03.077Z,460.00
2018-04-13T09:30:03.100Z,464.00
2018-04-13T09:31:03.129Z,460.00
2018-04-13T09:32:03.157Z,460.00
2018-04-13T09:33:03.212Z,460.00
2018-04-13T09:34:03.218Z,464.00
2018-04-13T09:35:03.249Z,456.00
2018-04-13T09:36:03.266Z,456.00
2018-04-13T09:37:03.288Z,460.00
2018-04-13T09:38:03.315Z,460.00
2018-04-13T09:39:03.345Z,456.00
2018-04-13T09:40:03.371Z,452.00
2018-04-13T09:41:03.397Z,460.00
2018-04-13T09:42:03.445Z,460.00
2018-04-13T09:43:03.454Z,468.00
2018-04-13T09:44:03.494Z,468.00
2018-04-13T09:45:03.507Z,468.00
2018-04-13T09:46:03.538Z,472.00
2018-04-13T09:47:03.559Z,468.00
2018-04-13T09:48:03.617Z,464.00
2018-04-13T09:49:03.648Z,468.00
2018-04-13T09:50:03.640Z,468.00
2018-04-13T09:51:03.669Z,464.00
2018-04-13T09:52:03.695Z,464.00
2018-04-13T09:53:03.723Z,464.00
2018-04-13T09:54:03.750Z,464.00
2018-04-13T09:55:03.776Z,456.00
2018-04-13T09:56:04.564Z,460.00
2018-04-13T09:57:03.832Z,456.00
2018-04-13T09:58:03.901Z,456.00
2018-04-13T09:59:03.885Z,452.00
2018-04-13T10:00:03.914Z,452.00
2018-04-13T10:01:03.938Z,452.00
2018-04-13T10:02:03.965Z,452.00
2018-04-13T10:03:03.997Z,448.00
2018-04-13T10:04:04.022Z,444.00
2018-04-13T10:05:04.046Z,448.00
2018-04-13T10:06:04.077Z,444.00
2018-04-13T10:07:04.100Z,444.00
2018-04-13T10:08:04.137Z,444.00
2018-04-13T10:09:04.154Z,440.00
2018-04-13T10:10:04.185Z,440.00
2018-04-13T10:11:04.222Z,440.00
2018-04-13T10:12:04.267Z,436.00
2018-04-13T10:13:04.290Z,436.00
2018-04-13T10:14:04.295Z,432.00
2018-04-13T10:15:04.317Z,436.00
2018-04-13T10:16:04.361Z,432.00
2018-04-13T10:17:04.381Z,428.00
2018-04-13T10:18:04.398Z,432.00
2018-04-13T10:19:04.426Z,420.00
2018-04-13T10:20:04.453Z,412.00
2018-04-13T10:21:04.482Z,424.00
2018-04-13T10:22:04.521Z,424.00
2018-04-13T10:23:04.533Z,420.00
2018-04-13T10:24:04.561Z,424.00
2018-04-13T10:25:04.588Z,420.00
2018-04-13T10:26:04.615Z,420.00
2018-04-13T10:27:04.642Z,416.00
2018-04-13T10:28:04.669Z,420.00
2018-04-13T10:29:04.726Z,412.00
2018-04-13T10:30:04.724Z,412.00
2018-04-13T10:31:04.750Z,412.00
2018-04-13T10:32:04.777Z,412.00
2018-04-13T10:33:04.826Z,412.00
2018-04-13T10:34:04.831Z,408.00
2018-04-13T10:35:04.863Z,408.00
2018-04-13T10:36:04.885Z,408.00
2018-04-13T10:37:04.912Z,408.00
2018-04-13T10:38:04.939Z,404.00
2018-04-13T10:39:04.966Z,404.00
2018-04-13T10:40:04.994Z,400.00
2018-04-13T10:41:05.022Z,404.00
2018-04-13T10:42:05.048Z,400.00
2018-04-13T10:43:05.075Z,400.00
2018-04-13T10:44:05.104Z,400.00
2018-04-13T10:45:05.129Z,396.00
2018-04-13T10:46:05.156Z,396.00
2018-04-13T10:47:05.183Z,392.00
2018-04-13T10:48:05.210Z,388.00
2018-04-13T10:49:05.236Z,388.00
2018-04-13T10:50:05.264Z,392.00
2018-04-13T10:51:05.320Z,388.00
2018-04-13T10:52:05.318Z,388.00
2018-04-13T10:53:05.376Z,388.00
2018-04-13T10:54:05.371Z,384.00
2018-04-13T10:55:05.400Z,388.00
2018-04-13T10:56:05.426Z,388.00
2018-04-13T10:57:05.458Z,388.00
2018-04-13T10:58:05.480Z,384.00
2018-04-13T10:59:05.510Z,384.00
2018-04-13T11:00:05.535Z,384.00
2018-04-13T11:01:05.561Z,384.00
2018-04-13T11:02:05.589Z,380.00
2018-04-13T11:03:05.616Z,384.00
2018-04-13T11:04:05.642Z,380.00
2018-04-13T11:05:05.689Z,380.00
2018-04-13T11:06:05.696Z,380.00
2018-04-13T11:07:05.765Z,380.00
2018-04-13T11:08:05.755Z,384.00
2018-04-13T11:09:05.821Z,380.00
2018-04-13T11:10:05.804Z,380.00
2018-04-13T11:11:05.838Z,380.00
2018-04-13T11:12:05.859Z,380.00
2018-04-13T11:13:05.897Z,376.00
2018-04-13T11:14:05.912Z,376.00
2018-04-13T11:15:05.939Z,376.00
2018-04-13T11:16:05.971Z,376.00
2018-04-13T11:17:05.994Z,372.00
2018-04-13T11:18:06.020Z,372.00
2018-04-13T11:19:06.049Z,372.00
2018-04-13T11:20:06.075Z,368.00
2018-04-13T11:21:06.101Z,376.00
2018-04-13T11:22:06.128Z,372.00
2018-04-13T11:23:06.155Z,372.00
2018-04-13T11:24:06.183Z,368.00
2018-04-13T11:25:06.209Z,368.00
2018-04-13T11:26:06.237Z,364.00
2018-04-13T11:27:06.263Z,364.00
2018-04-13T11:28:06.290Z,368.00
2018-04-13T11:29:06.317Z,368.00
2018-04-13T11:30:06.348Z,368.00
2018-04-13T11:31:06.371Z,368.00
2018-04-13T11:32:06.398Z,364.00
2018-04-13T11:33:06.426Z,364.00
2018-04-13T11:34:06.466Z,364.00
2018-04-13T11:35:06.479Z,364.00
2018-04-13T11:36:06.507Z,364.00
2018-04-13T11:37:06.533Z,364.00
2018-04-13T11:38:06.569Z,368.00
2018-04-13T11:39:06.607Z,364.00
2018-04-13T11:40:06.615Z,364.00
2018-04-13T11:41:06.641Z,364.00
2018-04-13T11:42:06.700Z,364.00
2018-04-13T11:43:06.695Z,360.00
2018-04-13T11:44:06.723Z,360.00
2018-04-13T11:45:06.750Z,360.00
2018-04-13T11:46:06.821Z,360.00
2018-04-13T11:47:06.803Z,356.00
2018-04-13T11:48:06.834Z,360.00
2018-04-13T11:49:06.858Z,356.00
2018-04-13T11:50:06.885Z,356.00
2018-04-13T11:51:06.916Z,356.00
2018-04-13T11:52:06.939Z,352.00
2018-04-13T11:53:07.009Z,352.00
2018-04-13T11:54:06.993Z,356.00
2018-04-13T11:55:07.020Z,352.00
2018-04-13T11:56:07.048Z,356.00
2018-04-13T11:57:07.074Z,356.00
2018-04-13T11:58:07.101Z,356.00
2018-04-13T11:59:07.128Z,356.00
2018-04-13T12:00:07.170Z,352.00
2018-04-13T12:01:07.181Z,352.00
2018-04-13T12:02:07.209Z,352.00
2018-04-13T12:03:07.236Z,352.00
2018-04-13T12:04:07.266Z,352.00
2018-04-13T12:05:07.290Z,352.00
2018-04-13T12:06:07.318Z,352.00
2018-04-13T12:07:07.346Z,352.00
2018-04-13T12:08:07.372Z,352.00
2018-04-13T12:09:07.399Z,352.00
2018-04-13T12:10:07.425Z,352.00
2018-04-13T12:11:07.453Z,352.00
2018-04-13T12:12:07.480Z,348.00
2018-04-13T12:13:07.506Z,352.00
2018-04-13T12:14:07.534Z,352.00
2018-04-13T12:15:07.561Z,340.00
2018-04-13T12:16:07.588Z,340.00
2018-04-13T12:17:07.618Z,336.00
2018-04-13T12:18:07.678Z,328.00
2018-04-13T12:19:07.676Z,344.00
2018-04-13T12:20:07.697Z,344.00
2018-04-13T12:21:07.723Z,348.00
2018-04-13T12:22:07.751Z,348.00
2018-04-13T12:23:07.816Z,344.00
2018-04-13T12:24:07.806Z,344.00
2018-04-13T12:25:07.835Z,344.00
2018-04-13T12:26:07.859Z,344.00
2018-04-13T12:27:07.887Z,344.00
2018-04-13T12:28:07.914Z,344.00
2018-04-13T12:29:07.940Z,344.00
2018-04-13T12:30:07.967Z,344.00
2018-04-13T12:31:07.995Z,340.00
2018-04-13T12:32:08.022Z,348.00
2018-04-13T12:33:08.075Z,340.00
2018-04-13T12:34:08.076Z,344.00
2018-04-13T12:35:08.104Z,344.00
2018-04-13T12:36:08.129Z,344.00
2018-04-13T12:37:08.156Z,340.00
2018-04-13T12:38:08.184Z,344.00
2018-04-13T12:39:08.211Z,344.00
2018-04-13T12:40:08.238Z,340.00
2018-04-13T12:41:08.264Z,336.00
2018-04-13T12:42:08.292Z,332.00
2018-04-13T12:43:08.318Z,332.00
2018-04-13T12:44:08.347Z,332.00
2018-04-13T12:45:08.373Z,328.00
2018-04-13T12:46:08.400Z,328.00
2018-04-13T12:47:08.426Z,328.00
2018-04-13T12:48:08.454Z,328.00
2018-04-13T12:49:08.481Z,320.00
2018-04-13T12:50:08.508Z,324.00
2018-04-13T12:51:08.540Z,328.00
2018-04-13T12:52:08.562Z,332.00
2018-04-13T12:53:08.606Z,332.00
2018-04-13T12:54:08.657Z,332.00
2018-04-13T12:55:08.975Z,332.00
2018-04-13T12:56:08.689Z,332.00
2018-04-13T12:57:08.771Z,332.00
2018-04-13T12:58:08.727Z,332.00
2018-04-13T12:59:08.752Z,328.00
2018-04-13T13:00:08.799Z,332.00
2018-04-13T13:01:08.805Z,328.00
2018-04-13T13:02:08.849Z,328.00
2018-04-13T13:03:08.859Z,328.00
2018-04-13T13:04:08.888Z,328.00
2018-04-13T13:05:08.916Z,328.00
2018-04-13T13:06:08.941Z,324.00
2018-04-13T13:07:08.969Z,324.00
2018-04-13T13:08:08.995Z,328.00
2018-04-13T13:09:09.021Z,328.00
2018-04-13T13:10:09.048Z,328.00
2018-04-13T13:11:09.076Z,324.00